createdAt,value
2022-10-19T00:02:38.483Z,5.18
2022-10-19T00:06:41.408Z,5.45
2022-10-19T00:10:44.345Z,5.85
2022-10-19T00:14:47.334Z,6.60
2022-10-19T00:18:50.494Z,5.35
2022-10-19T00:22:53.323Z,7.10
2022-10-19T00:26:56.277Z,5.97
2022-10-19T00:31:06.804Z,5.93
2022-10-19T00:35:09.860Z,7.53
2022-10-19T00:39:15.387Z,7.65
2022-10-19T00:43:26.395Z,6.63
2022-10-19T00:47:29.691Z,6.78
2022-10-19T00:51:35.453Z,6.05
2022-10-19T00:55:39.694Z,6.18
2022-10-19T00:59:44.557Z,5.70
2022-10-19T01:03:48.317Z,6.38
2022-10-19T01:07:52.364Z,6.53
2022-10-19T01:12:09.688Z,5.93
2022-10-19T01:16:23.094Z,5.65
2022-10-19T01:21:03.230Z,5.78
2022-10-19T01:25:12.489Z,5.18
2022-10-19T01:29:36.794Z,5.95
2022-10-19T01:33:46.144Z,6.22
2022-10-19T01:38:02.675Z,6.13
2022-10-19T01:42:12.486Z,5.82
2022-10-19T01:46:41.096Z,5.63
2022-10-19T01:50:50.669Z,5.90
2022-10-19T01:54:57.389Z,6.47
2022-10-19T01:59:03.771Z,6.80
2022-10-19T02:03:07.294Z,6.13
2022-10-19T02:07:11.885Z,5.95
2022-10-19T02:11:16.223Z,5.72
2022-10-19T02:15:21.469Z,6.60
2022-10-19T02:23:32.378Z,6.55
2022-10-19T02:27:35.683Z,6.38
2022-10-19T02:31:38.981Z,5.85
2022-10-19T02:35:42.082Z,6.35
2022-10-19T02:39:44.980Z,5.72
2022-10-19T02:43:56.497Z,5.55
2022-10-19T02:48:11.396Z,5.57
2022-10-19T02:52:14.921Z,5.40
2022-10-19T02:56:17.819Z,4.93
2022-10-19T03:00:20.802Z,5.22
2022-10-19T03:04:23.663Z,5.28
2022-10-19T03:08:26.406Z,4.60
2022-10-19T03:12:29.273Z,5.03
2022-10-19T03:16:31.939Z,4.75
2022-10-19T03:20:34.902Z,6.25
2022-10-19T03:24:37.582Z,4.75
2022-10-19T03:28:40.536Z,4.38
2022-10-19T03:32:43.529Z,5.35
2022-10-19T03:36:46.371Z,4.95
2022-10-19T03:40:49.077Z,4.68
2022-10-19T03:44:52.964Z,4.22
2022-10-19T03:48:55.978Z,4.65
2022-10-19T03:52:59.044Z,5.43
2022-10-19T03:57:01.891Z,5.13
2022-10-19T04:01:14.446Z,4.60
2022-10-19T04:05:17.216Z,5.65
2022-10-19T04:09:22.126Z,5.10
2022-10-19T04:13:24.935Z,5.18
2022-10-19T04:17:28.175Z,5.00
2022-10-19T04:21:33.367Z,6.00
2022-10-19T04:25:36.328Z,5.30
2022-10-19T04:29:39.022Z,5.75
2022-10-19T04:33:42.225Z,5.72
2022-10-19T04:37:45.026Z,6.18
2022-10-19T04:41:47.791Z,5.63
2022-10-19T04:45:50.468Z,5.75
2022-10-19T04:49:53.289Z,5.63
2022-10-19T04:53:59.602Z,6.35
2022-10-19T05:02:05.553Z,7.95
2022-10-19T05:06:08.858Z,7.55
2022-10-19T05:10:11.962Z,6.97
2022-10-19T05:14:15.172Z,6.47
2022-10-19T05:18:17.926Z,7.15
2022-10-19T05:22:20.625Z,6.75
2022-10-19T05:26:29.204Z,7.15
2022-10-19T05:30:32.708Z,6.32
2022-10-19T05:34:39.726Z,6.63
2022-10-19T05:38:44.133Z,5.50
2022-10-19T05:42:47.098Z,5.90
2022-10-19T05:46:51.385Z,5.93
2022-10-19T05:50:55.011Z,6.10
2022-10-19T05:54:58.511Z,6.53
2022-10-19T05:59:04.840Z,6.95
2022-10-19T06:03:07.602Z,7.50
2022-10-19T06:07:10.412Z,7.18
2022-10-19T06:11:17.467Z,7.03
2022-10-19T06:15:20.393Z,7.18
2022-10-19T06:19:23.302Z,7.50
2022-10-19T06:23:26.327Z,7.78
2022-10-19T06:27:29.415Z,8.10
2022-10-19T06:31:35.246Z,8.35
2022-10-19T06:35:38.595Z,8.35
2022-10-19T06:39:41.469Z,9.00
2022-10-19T06:43:44.774Z,9.77
2022-10-19T06:51:52.389Z,9.23
2022-10-19T06:56:03.166Z,9.95
2022-10-19T07:00:07.750Z,9.70
2022-10-19T07:04:10.530Z,9.07
2022-10-19T07:08:13.588Z,7.97
2022-10-19T07:12:16.411Z,7.53
2022-10-19T07:16:21.494Z,7.20
2022-10-19T07:20:24.807Z,8.02
2022-10-19T07:24:27.631Z,6.68
2022-10-19T07:28:30.953Z,7.55
2022-10-19T07:32:33.813Z,7.30
2022-10-19T07:36:37.159Z,9.10
2022-10-19T07:40:43.565Z,9.57
2022-10-19T07:44:50.654Z,9.00
2022-10-19T07:48:55.289Z,9.10
2022-10-19T07:52:58.093Z,8.38
2022-10-19T07:57:03.612Z,9.25
2022-10-19T08:01:10.589Z,7.75
2022-10-19T08:05:13.864Z,7.32
2022-10-19T08:09:33.780Z,7.78
2022-10-19T08:13:40.353Z,8.15
2022-10-19T08:17:44.161Z,8.38
2022-10-19T08:21:47.574Z,7.85
2022-10-19T08:25:50.826Z,8.05
2022-10-19T08:29:53.751Z,8.45
2022-10-19T08:33:57.801Z,8.35
2022-10-19T08:38:02.847Z,8.25
2022-10-19T08:42:19.767Z,7.65
2022-10-19T08:46:31.663Z,8.27
2022-10-19T08:50:41.222Z,8.75
2022-10-19T08:54:54.155Z,11.25
2022-10-19T08:59:16.122Z,12.70
2022-10-19T09:03:37.803Z,13.73
2022-10-19T09:07:53.338Z,23.42
2022-10-19T09:12:02.979Z,13.88
2022-10-19T09:16:06.521Z,8.63
2022-10-19T09:20:29.450Z,7.00
2022-10-19T09:24:51.763Z,6.82
2022-10-19T09:29:32.250Z,9.57
2022-10-19T09:33:38.729Z,9.32
2022-10-19T09:42:19.974Z,8.52
2022-10-19T09:47:01.167Z,8.40
2022-10-19T09:51:12.384Z,11.70
2022-10-19T09:55:21.050Z,9.18
2022-10-19T09:59:29.416Z,10.18
2022-10-19T10:03:40.509Z,11.27
2022-10-19T10:07:44.864Z,10.27
2022-10-19T10:11:51.139Z,10.45
2022-10-19T10:16:03.895Z,10.75
2022-10-19T10:20:28.360Z,9.30
2022-10-19T10:24:33.491Z,9.10
2022-10-19T10:28:47.290Z,10.18
2022-10-19T10:32:53.670Z,9.60
2022-10-19T10:41:29.207Z,8.75
2022-10-19T10:45:33.606Z,8.70
2022-10-19T10:49:38.332Z,8.30
2022-10-19T10:53:46.340Z,8.85
2022-10-19T10:57:54.532Z,8.57
2022-10-19T11:02:12.169Z,8.55
2022-10-19T11:06:17.251Z,7.57
2022-10-19T11:10:30.621Z,8.82
2022-10-19T11:15:01.293Z,8.05
2022-10-19T11:19:22.469Z,8.75
2022-10-19T11:23:57.724Z,8.45
2022-10-19T11:28:14.413Z,9.15
2022-10-19T11:32:51.213Z,9.60
2022-10-19T11:37:22.849Z,9.02
2022-10-19T11:42:02.593Z,9.05
2022-10-19T11:46:30.250Z,8.18
2022-10-19T11:50:58.962Z,7.07
2022-10-19T11:55:33.263Z,6.05
2022-10-19T12:00:15.411Z,6.50
2022-10-19T12:04:53.778Z,6.72
2022-10-19T12:13:08.939Z,6.45
2022-10-19T12:17:21.003Z,6.50
2022-10-19T12:21:25.762Z,5.97
2022-10-19T12:25:29.463Z,5.80
2022-10-19T12:29:37.965Z,5.18
2022-10-19T12:34:02.374Z,5.70
2022-10-19T12:38:15.134Z,5.82
2022-10-19T12:42:32.431Z,5.72
2022-10-19T12:46:52.463Z,6.03
2022-10-19T12:50:58.671Z,5.90
2022-10-19T12:55:16.798Z,6.55
2022-10-19T12:59:27.116Z,6.32
2022-10-19T13:03:42.074Z,5.55
2022-10-19T13:12:20.008Z,5.60
2022-10-19T13:16:37.300Z,7.20
2022-10-19T13:24:43.169Z,5.78
2022-10-19T13:28:54.044Z,5.68
2022-10-19T13:32:57.025Z,5.78
2022-10-19T13:37:04.414Z,5.15
2022-10-19T13:41:26.524Z,5.63
2022-10-19T13:45:29.699Z,5.40
2022-10-19T13:49:32.931Z,6.03
2022-10-19T13:53:47.238Z,5.53
2022-10-19T13:58:24.828Z,5.45
2022-10-19T14:02:50.863Z,5.82
2022-10-19T14:07:00.799Z,5.53
2022-10-19T14:11:12.639Z,5.53
2022-10-19T14:15:18.529Z,5.53
2022-10-19T14:19:29.888Z,5.30
2022-10-19T14:23:35.779Z,5.80
2022-10-19T14:27:38.961Z,4.97
2022-10-19T14:31:42.290Z,5.78
2022-10-19T14:35:50.262Z,5.57
2022-10-19T14:40:26.663Z,4.93
2022-10-19T14:44:46.474Z,5.95
2022-10-19T14:48:50.914Z,5.32
2022-10-19T14:53:31.610Z,5.60
2022-10-19T14:57:40.881Z,5.68
2022-10-19T15:01:50.222Z,5.70
2022-10-19T15:05:59.886Z,5.22
2022-10-19T15:10:06.895Z,5.72
2022-10-19T15:14:16.704Z,5.72
2022-10-19T15:18:47.544Z,5.28
2022-10-19T15:22:49.287Z,5.23
2022-10-19T15:27:06.420Z,5.93
2022-10-19T15:31:16.820Z,5.90
2022-10-19T15:35:38.242Z,6.10
2022-10-19T15:39:44.870Z,6.18
2022-10-19T15:43:57.174Z,6.47
2022-10-19T15:48:21.837Z,6.22
2022-10-19T15:52:34.023Z,5.82
2022-10-19T15:56:42.342Z,6.28
2022-10-19T16:00:46.923Z,7.05
2022-10-19T16:04:50.505Z,8.30
2022-10-19T16:08:56.536Z,6.60
2022-10-19T16:12:59.551Z,6.40
2022-10-19T16:17:07.686Z,6.47
2022-10-19T16:21:13.499Z,6.88
2022-10-19T16:25:17.131Z,5.97
2022-10-19T16:29:20.522Z,6.43
2022-10-19T16:33:23.636Z,6.75
2022-10-19T16:37:26.359Z,6.40
2022-10-19T16:41:29.695Z,6.78
2022-10-19T16:45:36.938Z,7.00
2022-10-19T16:50:00.606Z,6.57
2022-10-19T16:54:45.933Z,7.38
2022-10-19T16:59:14.610Z,6.53
2022-10-19T17:03:22.129Z,5.80
2022-10-19T17:12:56.219Z,6.05
2022-10-19T17:16:59.899Z,6.18
2022-10-19T17:22:21.134Z,5.85
2022-10-19T17:27:04.515Z,4.80
2022-10-19T17:31:15.041Z,5.22
2022-10-19T17:36:11.434Z,4.43
2022-10-19T17:46:01.826Z,5.13
2022-10-19T17:50:36.947Z,4.78
2022-10-19T17:55:12.613Z,4.68
2022-10-19T17:59:16.200Z,4.38
2022-10-19T18:03:22.770Z,4.45
2022-10-19T18:07:26.288Z,4.85
2022-10-19T18:11:37.135Z,4.60
2022-10-19T18:15:40.184Z,4.60
2022-10-19T18:19:43.069Z,4.38
2022-10-19T18:23:46.140Z,4.60
2022-10-19T18:27:49.084Z,4.47
2022-10-19T18:31:53.064Z,4.32
2022-10-19T18:35:58.746Z,4.00
2022-10-19T18:40:01.646Z,4.38
2022-10-19T18:44:05.835Z,4.53
2022-10-19T18:48:08.826Z,4.50
2022-10-19T18:52:11.775Z,4.70
2022-10-19T18:56:17.067Z,4.50
2022-10-19T19:00:20.145Z,5.50
2022-10-19T19:04:23.069Z,7.85
2022-10-19T19:08:26.038Z,7.85
2022-10-19T19:12:31.070Z,8.70
2022-10-19T19:16:36.513Z,7.63
2022-10-19T19:20:42.526Z,8.68
2022-10-19T19:24:45.946Z,9.48
2022-10-19T19:28:51.581Z,10.02
2022-10-19T19:32:54.768Z,9.88
2022-10-19T19:36:57.631Z,10.05
2022-10-19T19:41:04.562Z,10.27
2022-10-19T19:45:19.590Z,9.73
2022-10-19T19:50:11.134Z,10.77
2022-10-19T19:59:33.403Z,9.25
2022-10-19T20:04:23.486Z,10.02
2022-10-19T20:09:40.643Z,10.50
2022-10-19T20:14:03.682Z,7.15
2022-10-19T20:18:45.272Z,7.22
2022-10-19T20:23:19.012Z,7.25
2022-10-19T20:27:27.271Z,7.82
2022-10-19T20:31:31.689Z,7.63
2022-10-19T20:35:37.207Z,7.15
2022-10-19T20:39:40.304Z,9.40
2022-10-19T20:43:43.563Z,9.25
2022-10-19T20:47:47.065Z,9.07
2022-10-19T20:51:50.534Z,9.93
2022-10-19T20:55:54.399Z,11.48
2022-10-19T20:59:57.306Z,10.13
2022-10-19T21:04:03.598Z,10.70
2022-10-19T21:08:09.527Z,10.52
2022-10-19T21:12:12.325Z,9.82
2022-10-19T21:16:17.031Z,9.88
2022-10-19T21:20:20.916Z,10.30
2022-10-19T21:24:27.367Z,10.18
2022-10-19T21:28:30.124Z,10.93
2022-10-19T21:32:33.121Z,9.80
2022-10-19T21:36:36.079Z,8.98
2022-10-19T21:40:38.900Z,9.68
2022-10-19T23:50:33.627Z,5.75
